sensor_id;sensor_type;location;lat;lon;timestamp;P1;durP1;ratioP1;P2;durP2;ratioP2
34978;SDS011;21185;50.978;13.720;2023-09-08T00:05:00;15.52;;;2.97;;
34978;SDS011;21185;50.978;13.720;2023-09-08T00:10:02;6.40;;;2.17;;
34978;SDS011;21185;50.978;13.720;2023-09-08T00:15:05;5.95;;;2.10;;
34978;SDS011;21185;50.978;13.720;2023-09-08T00:20:08;6.85;;;2.15;;
34978;SDS011;21185;50.978;13.720;2023-09-08T00:25:10;5.55;;;2.42;;
34978;SDS011;21185;50.978;13.720;2023-09-08T00:30:12;4.03;;;2.08;;
34978;SDS011;21185;50.978;13.720;2023-09-08T00:35:14;6.38;;;2.42;;
34978;SDS011;21185;50.978;13.720;2023-09-08T00:40:16;4.20;;;2.33;;
34978;SDS011;21185;50.978;13.720;2023-09-08T00:45:18;4.45;;;2.10;;
34978;SDS011;21185;50.978;13.720;2023-09-08T00:50:20;5.85;;;2.90;;
34978;SDS011;21185;50.978;13.720;2023-09-08T00:55:23;3.63;;;2.15;;
34978;SDS011;21185;50.978;13.720;2023-09-08T01:00:25;5.57;;;2.50;;
34978;SDS011;21185;50.978;13.720;2023-09-08T01:05:27;5.95;;;2.17;;
34978;SDS011;21185;50.978;13.720;2023-09-08T01:10:29;4.85;;;2.10;;
34978;SDS011;21185;50.978;13.720;2023-09-08T01:15:31;6.65;;;2.38;;
34978;SDS011;21185;50.978;13.720;2023-09-08T01:26:19;3.63;;;2.20;;
34978;SDS011;21185;50.978;13.720;2023-09-08T01:31:27;6.15;;;2.50;;
34978;SDS011;21185;50.978;13.720;2023-09-08T01:36:29;5.50;;;2.47;;
34978;SDS011;21185;50.978;13.720;2023-09-08T01:41:31;4.32;;;2.00;;
34978;SDS011;21185;50.978;13.720;2023-09-08T01:46:34;5.35;;;3.00;;
34978;SDS011;21185;50.978;13.720;2023-09-08T01:51:36;4.93;;;2.50;;
34978;SDS011;21185;50.978;13.720;2023-09-08T01:56:38;6.40;;;3.20;;
34978;SDS011;21185;50.978;13.720;2023-09-08T02:01:41;6.30;;;2.53;;
34978;SDS011;21185;50.978;13.720;2023-09-08T02:06:43;5.45;;;3.28;;
34978;SDS011;21185;50.978;13.720;2023-09-08T02:11:45;6.38;;;2.97;;
34978;SDS011;21185;50.978;13.720;2023-09-08T02:16:46;4.57;;;2.80;;
34978;SDS011;21185;50.978;13.720;2023-09-08T02:21:49;6.72;;;3.28;;
34978;SDS011;21185;50.978;13.720;2023-09-08T02:26:51;6.95;;;2.92;;
34978;SDS011;21185;50.978;13.720;2023-09-08T02:31:55;5.78;;;2.80;;
34978;SDS011;21185;50.978;13.720;2023-09-08T02:36:57;5.20;;;2.65;;
34978;SDS011;21185;50.978;13.720;2023-09-08T02:42:00;9.32;;;2.88;;
34978;SDS011;21185;50.978;13.720;2023-09-08T02:47:02;4.38;;;2.20;;
34978;SDS011;21185;50.978;13.720;2023-09-08T02:52:05;8.63;;;2.92;;
34978;SDS011;21185;50.978;13.720;2023-09-08T02:57:08;3.08;;;2.20;;
34978;SDS011;21185;50.978;13.720;2023-09-08T03:02:11;5.38;;;2.80;;
34978;SDS011;21185;50.978;13.720;2023-09-08T03:07:13;6.55;;;3.15;;
34978;SDS011;21185;50.978;13.720;2023-09-08T03:12:17;5.80;;;2.78;;
34978;SDS011;21185;50.978;13.720;2023-09-08T03:17:18;5.43;;;2.65;;
34978;SDS011;21185;50.978;13.720;2023-09-08T03:22:20;5.40;;;3.00;;
34978;SDS011;21185;50.978;13.720;2023-09-08T03:27:22;6.97;;;2.92;;
34978;SDS011;21185;50.978;13.720;2023-09-08T03:32:24;5.78;;;2.67;;
34978;SDS011;21185;50.978;13.720;2023-09-08T03:37:28;4.90;;;2.72;;
34978;SDS011;21185;50.978;13.720;2023-09-08T03:42:30;5.20;;;2.60;;
34978;SDS011;21185;50.978;13.720;2023-09-08T03:47:32;5.22;;;2.63;;
34978;SDS011;21185;50.978;13.720;2023-09-08T03:52:34;9.80;;;3.25;;
34978;SDS011;21185;50.978;13.720;2023-09-08T03:57:36;5.45;;;2.65;;
34978;SDS011;21185;50.978;13.720;2023-09-08T04:02:38;5.93;;;3.03;;
34978;SDS011;21185;50.978;13.720;2023-09-08T04:07:40;4.22;;;2.47;;
34978;SDS011;21185;50.978;13.720;2023-09-08T04:12:43;4.50;;;2.83;;
34978;SDS011;21185;50.978;13.720;2023-09-08T04:17:46;7.35;;;3.45;;
34978;SDS011;21185;50.978;13.720;2023-09-08T04:22:48;10.18;;;3.35;;
34978;SDS011;21185;50.978;13.720;2023-09-08T04:27:50;4.70;;;2.70;;
34978;SDS011;21185;50.978;13.720;2023-09-08T04:32:52;6.88;;;2.97;;
34978;SDS011;21185;50.978;13.720;2023-09-08T04:37:54;5.82;;;3.05;;
34978;SDS011;21185;50.978;13.720;2023-09-08T04:42:56;9.63;;;3.47;;
34978;SDS011;21185;50.978;13.720;2023-09-08T04:47:58;5.70;;;3.00;;
34978;SDS011;21185;50.978;13.720;2023-09-08T04:53:00;5.93;;;3.00;;
34978;SDS011;21185;50.978;13.720;2023-09-08T04:58:03;6.43;;;3.00;;
34978;SDS011;21185;50.978;13.720;2023-09-08T05:03:06;8.88;;;2.75;;
34978;SDS011;21185;50.978;13.720;2023-09-08T05:08:09;6.32;;;2.67;;
34978;SDS011;21185;50.978;13.720;2023-09-08T05:13:11;5.18;;;2.78;;
34978;SDS011;21185;50.978;13.720;2023-09-08T05:18:30;5.63;;;3.10;;
34978;SDS011;21185;50.978;13.720;2023-09-08T05:23:33;5.65;;;3.38;;
34978;SDS011;21185;50.978;13.720;2023-09-08T05:28:36;4.93;;;2.70;;
34978;SDS011;21185;50.978;13.720;2023-09-08T05:33:41;4.13;;;2.70;;
34978;SDS011;21185;50.978;13.720;2023-09-08T05:38:44;6.95;;;2.90;;
34978;SDS011;21185;50.978;13.720;2023-09-08T05:43:46;4.63;;;2.53;;
34978;SDS011;21185;50.978;13.720;2023-09-08T05:48:49;5.38;;;3.15;;
34978;SDS011;21185;50.978;13.720;2023-09-08T05:53:51;5.35;;;2.97;;
34978;SDS011;21185;50.978;13.720;2023-09-08T05:58:53;6.40;;;2.90;;
34978;SDS011;21185;50.978;13.720;2023-09-08T06:03:56;5.88;;;3.22;;
34978;SDS011;21185;50.978;13.720;2023-09-08T06:09:02;5.75;;;3.22;;
34978;SDS011;21185;50.978;13.720;2023-09-08T06:14:05;6.68;;;3.33;;
34978;SDS011;21185;50.978;13.720;2023-09-08T06:19:12;9.30;;;3.47;;
34978;SDS011;21185;50.978;13.720;2023-09-08T06:24:14;4.93;;;2.88;;
34978;SDS011;21185;50.978;13.720;2023-09-08T06:29:21;6.32;;;3.08;;
34978;SDS011;21185;50.978;13.720;2023-09-08T06:34:23;5.22;;;2.72;;
34978;SDS011;21185;50.978;13.720;2023-09-08T06:39:25;6.55;;;3.50;;
34978;SDS011;21185;50.978;13.720;2023-09-08T06:44:29;5.05;;;2.88;;
34978;SDS011;21185;50.978;13.720;2023-09-08T06:49:31;5.13;;;3.05;;
34978;SDS011;21185;50.978;13.720;2023-09-08T06:54:35;6.45;;;2.95;;
34978;SDS011;21185;50.978;13.720;2023-09-08T06:59:37;6.07;;;3.20;;
34978;SDS011;21185;50.978;13.720;2023-09-08T07:04:39;8.65;;;3.58;;
34978;SDS011;21185;50.978;13.720;2023-09-08T07:09:42;5.97;;;3.03;;
34978;SDS011;21185;50.978;13.720;2023-09-08T07:14:44;6.82;;;3.85;;
34978;SDS011;21185;50.978;13.720;2023-09-08T07:19:46;7.03;;;3.00;;
34978;SDS011;21185;50.978;13.720;2023-09-08T07:24:49;5.95;;;3.22;;
34978;SDS011;21185;50.978;13.720;2023-09-08T07:29:52;6.78;;;3.25;;
34978;SDS011;21185;50.978;13.720;2023-09-08T07:34:55;7.75;;;3.00;;
34978;SDS011;21185;50.978;13.720;2023-09-08T07:39:58;6.10;;;3.28;;
34978;SDS011;21185;50.978;13.720;2023-09-08T07:45:00;7.85;;;3.20;;
34978;SDS011;21185;50.978;13.720;2023-09-08T07:55:25;5.20;;;2.97;;
34978;SDS011;21185;50.978;13.720;2023-09-08T08:00:30;6.60;;;2.97;;
34978;SDS011;21185;50.978;13.720;2023-09-08T08:05:32;7.43;;;3.38;;
34978;SDS011;21185;50.978;13.720;2023-09-08T08:10:34;5.25;;;2.95;;
34978;SDS011;21185;50.978;13.720;2023-09-08T08:15:38;6.70;;;3.10;;
34978;SDS011;21185;50.978;13.720;2023-09-08T08:20:41;5.55;;;3.08;;
34978;SDS011;21185;50.978;13.720;2023-09-08T08:25:43;5.75;;;3.00;;
34978;SDS011;21185;50.978;13.720;2023-09-08T08:30:45;5.82;;;3.25;;
34978;SDS011;21185;50.978;13.720;2023-09-08T08:35:50;5.15;;;2.70;;
34978;SDS011;21185;50.978;13.720;2023-09-08T08:40:52;5.05;;;2.80;;
34978;SDS011;21185;50.978;13.720;2023-09-08T08:45:54;7.82;;;3.28;;
34978;SDS011;21185;50.978;13.720;2023-09-08T08:50:59;5.53;;;3.08;;
34978;SDS011;21185;50.978;13.720;2023-09-08T08:56:01;6.40;;;3.30;;
34978;SDS011;21185;50.978;13.720;2023-09-08T09:01:05;5.97;;;2.75;;
34978;SDS011;21185;50.978;13.720;2023-09-08T09:06:09;4.97;;;2.35;;
34978;SDS011;21185;50.978;13.720;2023-09-08T09:11:12;8.75;;;1.90;;
34978;SDS011;21185;50.978;13.720;2023-09-08T09:16:14;4.45;;;2.30;;
34978;SDS011;21185;50.978;13.720;2023-09-08T09:21:17;4.68;;;2.20;;
34978;SDS011;21185;50.978;13.720;2023-09-08T09:26:23;5.60;;;2.45;;
34978;SDS011;21185;50.978;13.720;2023-09-08T09:31:26;3.65;;;2.13;;
34978;SDS011;21185;50.978;13.720;2023-09-08T09:36:28;2.83;;;1.60;;
34978;SDS011;21185;50.978;13.720;2023-09-08T09:41:30;4.68;;;2.50;;
34978;SDS011;21185;50.978;13.720;2023-09-08T09:46:33;5.40;;;1.98;;
34978;SDS011;21185;50.978;13.720;2023-09-08T09:51:39;3.72;;;2.20;;
34978;SDS011;21185;50.978;13.720;2023-09-08T10:01:47;4.28;;;1.85;;
34978;SDS011;21185;50.978;13.720;2023-09-08T10:06:50;4.60;;;2.00;;
34978;SDS011;21185;50.978;13.720;2023-09-08T10:11:54;7.13;;;1.75;;
34978;SDS011;21185;50.978;13.720;2023-09-08T10:17:00;9.23;;;2.28;;
34978;SDS011;21185;50.978;13.720;2023-09-08T10:22:04;4.30;;;1.95;;
34978;SDS011;21185;50.978;13.720;2023-09-08T10:27:11;10.27;;;2.35;;
34978;SDS011;21185;50.978;13.720;2023-09-08T10:32:14;3.70;;;1.90;;
34978;SDS011;21185;50.978;13.720;2023-09-08T10:37:21;2.70;;;1.60;;
34978;SDS011;21185;50.978;13.720;2023-09-08T10:42:26;3.65;;;1.92;;
34978;SDS011;21185;50.978;13.720;2023-09-08T10:47:33;5.22;;;2.00;;
34978;SDS011;21185;50.978;13.720;2023-09-08T10:53:05;7.28;;;1.88;;
34978;SDS011;21185;50.978;13.720;2023-09-08T10:58:18;3.67;;;1.83;;
34978;SDS011;21185;50.978;13.720;2023-09-08T11:03:43;4.80;;;2.05;;
34978;SDS011;21185;50.978;13.720;2023-09-08T11:08:49;2.55;;;1.70;;
34978;SDS011;21185;50.978;13.720;2023-09-08T11:13:55;5.07;;;2.20;;
34978;SDS011;21185;50.978;13.720;2023-09-08T11:18:56;4.05;;;1.63;;
34978;SDS011;21185;50.978;13.720;2023-09-08T11:23:59;4.63;;;2.05;;
34978;SDS011;21185;50.978;13.720;2023-09-08T11:29:01;2.83;;;1.60;;
34978;SDS011;21185;50.978;13.720;2023-09-08T11:34:05;5.00;;;1.77;;
34978;SDS011;21185;50.978;13.720;2023-09-08T11:39:09;3.97;;;1.90;;
34978;SDS011;21185;50.978;13.720;2023-09-08T11:44:15;7.32;;;2.17;;
34978;SDS011;21185;50.978;13.720;2023-09-08T11:49:19;3.95;;;1.75;;
34978;SDS011;21185;50.978;13.720;2023-09-08T11:54:22;4.47;;;1.70;;
34978;SDS011;21185;50.978;13.720;2023-09-08T11:59:24;4.10;;;1.80;;
34978;SDS011;21185;50.978;13.720;2023-09-08T12:04:28;3.75;;;1.65;;
34978;SDS011;21185;50.978;13.720;2023-09-08T12:09:30;4.03;;;1.80;;
34978;SDS011;21185;50.978;13.720;2023-09-08T12:14:39;2.60;;;1.58;;
34978;SDS011;21185;50.978;13.720;2023-09-08T12:19:45;2.42;;;1.50;;
34978;SDS011;21185;50.978;13.720;2023-09-08T12:29:58;3.05;;;1.52;;
34978;SDS011;21185;50.978;13.720;2023-09-08T12:35:05;4.70;;;1.80;;
34978;SDS011;21185;50.978;13.720;2023-09-08T12:40:08;6.38;;;2.22;;
34978;SDS011;21185;50.978;13.720;2023-09-08T12:45:11;3.63;;;1.88;;
34978;SDS011;21185;50.978;13.720;2023-09-08T12:50:14;3.95;;;1.95;;
34978;SDS011;21185;50.978;13.720;2023-09-08T12:55:16;7.57;;;2.30;;
34978;SDS011;21185;50.978;13.720;2023-09-08T13:00:18;3.47;;;1.50;;
34978;SDS011;21185;50.978;13.720;2023-09-08T13:05:21;2.20;;;1.50;;
34978;SDS011;21185;50.978;13.720;2023-09-08T13:10:23;3.50;;;1.85;;
34978;SDS011;21185;50.978;13.720;2023-09-08T13:15:25;5.32;;;1.90;;
34978;SDS011;21185;50.978;13.720;2023-09-08T13:20:27;4.00;;;1.85;;
34978;SDS011;21185;50.978;13.720;2023-09-08T13:25:29;5.65;;;2.35;;
34978;SDS011;21185;50.978;13.720;2023-09-08T13:30:32;4.85;;;2.05;;
34978;SDS011;21185;50.978;13.720;2023-09-08T13:35:34;3.70;;;1.92;;
34978;SDS011;21185;50.978;13.720;2023-09-08T13:40:36;4.10;;;1.50;;
34978;SDS011;21185;50.978;13.720;2023-09-08T13:45:38;2.97;;;1.60;;
34978;SDS011;21185;50.978;13.720;2023-09-08T13:50:40;5.82;;;2.00;;
34978;SDS011;21185;50.978;13.720;2023-09-08T13:55:45;3.60;;;1.42;;
34978;SDS011;21185;50.978;13.720;2023-09-08T14:00:52;3.58;;;2.33;;
34978;SDS011;21185;50.978;13.720;2023-09-08T14:05:55;2.40;;;1.70;;
34978;SDS011;21185;50.978;13.720;2023-09-08T14:11:04;4.30;;;1.48;;
34978;SDS011;21185;50.978;13.720;2023-09-08T14:16:17;3.28;;;1.48;;
34978;SDS011;21185;50.978;13.720;2023-09-08T14:21:20;5.20;;;1.75;;
34978;SDS011;21185;50.978;13.720;2023-09-08T14:26:22;2.75;;;1.67;;
34978;SDS011;21185;50.978;13.720;2023-09-08T14:31:24;3.72;;;1.75;;
34978;SDS011;21185;50.978;13.720;2023-09-08T14:36:26;4.53;;;1.55;;
34978;SDS011;21185;50.978;13.720;2023-09-08T14:41:29;4.18;;;1.75;;
34978;SDS011;21185;50.978;13.720;2023-09-08T14:46:31;4.10;;;1.75;;
34978;SDS011;21185;50.978;13.720;2023-09-08T14:51:33;3.08;;;1.63;;
34978;SDS011;21185;50.978;13.720;2023-09-08T14:56:35;3.00;;;1.55;;
34978;SDS011;21185;50.978;13.720;2023-09-08T15:01:37;3.15;;;1.60;;
34978;SDS011;21185;50.978;13.720;2023-09-08T15:06:42;4.57;;;2.03;;
34978;SDS011;21185;50.978;13.720;2023-09-08T15:11:44;5.03;;;2.30;;
34978;SDS011;21185;50.978;13.720;2023-09-08T15:16:47;3.25;;;1.90;;
34978;SDS011;21185;50.978;13.720;2023-09-08T15:21:49;5.15;;;2.00;;
34978;SDS011;21185;50.978;13.720;2023-09-08T15:26:51;5.43;;;2.03;;
34978;SDS011;21185;50.978;13.720;2023-09-08T15:31:53;3.00;;;1.42;;
34978;SDS011;21185;50.978;13.720;2023-09-08T15:36:56;4.50;;;1.95;;
34978;SDS011;21185;50.978;13.720;2023-09-08T15:41:58;2.78;;;1.60;;
34978;SDS011;21185;50.978;13.720;2023-09-08T15:47:00;6.15;;;2.28;;
34978;SDS011;21185;50.978;13.720;2023-09-08T15:52:02;3.70;;;1.70;;
34978;SDS011;21185;50.978;13.720;2023-09-08T15:57:18;5.50;;;1.60;;
34978;SDS011;21185;50.978;13.720;2023-09-08T16:02:20;3.60;;;1.77;;
34978;SDS011;21185;50.978;13.720;2023-09-08T16:07:22;4.80;;;2.17;;
34978;SDS011;21185;50.978;13.720;2023-09-08T16:12:25;23.65;;;2.25;;
34978;SDS011;21185;50.978;13.720;2023-09-08T16:17:28;2.78;;;1.80;;
34978;SDS011;21185;50.978;13.720;2023-09-08T16:22:30;4.55;;;2.00;;
34978;SDS011;21185;50.978;13.720;2023-09-08T16:27:32;4.05;;;1.95;;
34978;SDS011;21185;50.978;13.720;2023-09-08T16:32:34;4.43;;;1.95;;
34978;SDS011;21185;50.978;13.720;2023-09-08T16:37:36;6.00;;;2.45;;
34978;SDS011;21185;50.978;13.720;2023-09-08T16:42:38;4.22;;;1.88;;
34978;SDS011;21185;50.978;13.720;2023-09-08T16:47:40;5.53;;;2.17;;
34978;SDS011;21185;50.978;13.720;2023-09-08T16:52:46;4.85;;;1.95;;
34978;SDS011;21185;50.978;13.720;2023-09-08T16:57:48;3.83;;;1.70;;
34978;SDS011;21185;50.978;13.720;2023-09-08T17:02:50;2.80;;;1.60;;
34978;SDS011;21185;50.978;13.720;2023-09-08T17:07:53;6.93;;;2.08;;
34978;SDS011;21185;50.978;13.720;2023-09-08T17:12:58;5.53;;;1.85;;
34978;SDS011;21185;50.978;13.720;2023-09-08T17:18:00;6.70;;;2.40;;
34978;SDS011;21185;50.978;13.720;2023-09-08T17:23:03;7.25;;;2.00;;
34978;SDS011;21185;50.978;13.720;2023-09-08T17:28:07;3.33;;;1.67;;
34978;SDS011;21185;50.978;13.720;2023-09-08T17:33:09;5.45;;;2.75;;
34978;SDS011;21185;50.978;13.720;2023-09-08T17:38:11;3.80;;;1.75;;
34978;SDS011;21185;50.978;13.720;2023-09-08T17:43:13;5.30;;;2.13;;
34978;SDS011;21185;50.978;13.720;2023-09-08T17:48:16;4.07;;;2.20;;
34978;SDS011;21185;50.978;13.720;2023-09-08T17:53:18;5.03;;;2.08;;
34978;SDS011;21185;50.978;13.720;2023-09-08T17:58:20;4.60;;;2.17;;
34978;SDS011;21185;50.978;13.720;2023-09-08T18:03:22;3.63;;;2.08;;
34978;SDS011;21185;50.978;13.720;2023-09-08T18:08:24;3.53;;;2.10;;
34978;SDS011;21185;50.978;13.720;2023-09-08T18:13:27;4.80;;;2.35;;
34978;SDS011;21185;50.978;13.720;2023-09-08T18:18:31;6.93;;;2.75;;
34978;SDS011;21185;50.978;13.720;2023-09-08T18:23:34;7.80;;;2.95;;
34978;SDS011;21185;50.978;13.720;2023-09-08T18:28:36;5.18;;;2.90;;
34978;SDS011;21185;50.978;13.720;2023-09-08T18:33:39;5.63;;;2.67;;
34978;SDS011;21185;50.978;13.720;2023-09-08T18:38:41;4.45;;;2.60;;
34978;SDS011;21185;50.978;13.720;2023-09-08T18:43:43;5.82;;;2.92;;
34978;SDS011;21185;50.978;13.720;2023-09-08T18:48:45;6.93;;;2.58;;
34978;SDS011;21185;50.978;13.720;2023-09-08T18:53:48;4.90;;;2.70;;
34978;SDS011;21185;50.978;13.720;2023-09-08T18:58:51;4.13;;;2.40;;
34978;SDS011;21185;50.978;13.720;2023-09-08T19:03:53;7.32;;;3.40;;
34978;SDS011;21185;50.978;13.720;2023-09-08T19:08:55;8.35;;;3.55;;
34978;SDS011;21185;50.978;13.720;2023-09-08T19:13:57;5.30;;;3.17;;
34978;SDS011;21185;50.978;13.720;2023-09-08T19:18:58;5.80;;;3.45;;
34978;SDS011;21185;50.978;13.720;2023-09-08T19:24:00;5.90;;;3.13;;
34978;SDS011;21185;50.978;13.720;2023-09-08T19:29:02;5.57;;;3.30;;
34978;SDS011;21185;50.978;13.720;2023-09-08T19:34:04;6.65;;;3.03;;
34978;SDS011;21185;50.978;13.720;2023-09-08T19:39:07;4.97;;;2.72;;
34978;SDS011;21185;50.978;13.720;2023-09-08T19:44:09;11.05;;;3.30;;
34978;SDS011;21185;50.978;13.720;2023-09-08T19:49:11;7.80;;;3.03;;
34978;SDS011;21185;50.978;13.720;2023-09-08T19:54:13;5.45;;;2.88;;
34978;SDS011;21185;50.978;13.720;2023-09-08T19:59:15;3.60;;;2.30;;
34978;SDS011;21185;50.978;13.720;2023-09-08T20:04:20;6.78;;;2.38;;
34978;SDS011;21185;50.978;13.720;2023-09-08T20:09:22;5.28;;;3.03;;
34978;SDS011;21185;50.978;13.720;2023-09-08T20:14:24;7.32;;;2.30;;
34978;SDS011;21185;50.978;13.720;2023-09-08T20:19:27;5.63;;;2.97;;
34978;SDS011;21185;50.978;13.720;2023-09-08T20:24:30;14.95;;;3.25;;
34978;SDS011;21185;50.978;13.720;2023-09-08T20:29:32;4.82;;;2.47;;
34978;SDS011;21185;50.978;13.720;2023-09-08T20:34:37;13.85;;;3.28;;
34978;SDS011;21185;50.978;13.720;2023-09-08T20:39:39;6.07;;;2.90;;
34978;SDS011;21185;50.978;13.720;2023-09-08T20:44:41;4.53;;;2.47;;
34978;SDS011;21185;50.978;13.720;2023-09-08T20:49:43;7.63;;;2.55;;
34978;SDS011;21185;50.978;13.720;2023-09-08T20:54:45;5.20;;;2.60;;
34978;SDS011;21185;50.978;13.720;2023-09-08T20:59:47;6.38;;;2.83;;
34978;SDS011;21185;50.978;13.720;2023-09-08T21:04:49;4.32;;;2.60;;
34978;SDS011;21185;50.978;13.720;2023-09-08T21:09:52;5.88;;;2.83;;
34978;SDS011;21185;50.978;13.720;2023-09-08T21:14:54;4.65;;;2.75;;
34978;SDS011;21185;50.978;13.720;2023-09-08T21:19:56;4.22;;;2.60;;
34978;SDS011;21185;50.978;13.720;2023-09-08T21:25:00;7.25;;;2.22;;
34978;SDS011;21185;50.978;13.720;2023-09-08T21:30:02;6.63;;;3.05;;
34978;SDS011;21185;50.978;13.720;2023-09-08T21:35:05;4.05;;;2.50;;
34978;SDS011;21185;50.978;13.720;2023-09-08T21:40:07;4.75;;;2.80;;
34978;SDS011;21185;50.978;13.720;2023-09-08T21:45:09;4.65;;;2.70;;
34978;SDS011;21185;50.978;13.720;2023-09-08T21:50:12;5.63;;;2.72;;
34978;SDS011;21185;50.978;13.720;2023-09-08T21:55:22;3.50;;;2.33;;
34978;SDS011;21185;50.978;13.720;2023-09-08T22:00:24;6.82;;;3.28;;
34978;SDS011;21185;50.978;13.720;2023-09-08T22:05:28;5.75;;;3.00;;
34978;SDS011;21185;50.978;13.720;2023-09-08T22:10:30;7.07;;;3.63;;
34978;SDS011;21185;50.978;13.720;2023-09-08T22:15:32;5.00;;;2.90;;
34978;SDS011;21185;50.978;13.720;2023-09-08T22:20:34;5.50;;;3.10;;
34978;SDS011;21185;50.978;13.720;2023-09-08T22:25:36;4.85;;;2.88;;
34978;SDS011;21185;50.978;13.720;2023-09-08T22:30:38;5.22;;;2.78;;
34978;SDS011;21185;50.978;13.720;2023-09-08T22:35:40;4.55;;;2.90;;
34978;SDS011;21185;50.978;13.720;2023-09-08T22:40:43;8.23;;;3.60;;
34978;SDS011;21185;50.978;13.720;2023-09-08T22:45:45;9.60;;;2.83;;
34978;SDS011;21185;50.978;13.720;2023-09-08T22:50:48;7.75;;;3.20;;
34978;SDS011;21185;50.978;13.720;2023-09-08T22:55:51;4.28;;;2.35;;
34978;SDS011;21185;50.978;13.720;2023-09-08T23:00:53;5.70;;;2.53;;
34978;SDS011;21185;50.978;13.720;2023-09-08T23:05:55;6.05;;;3.38;;
34978;SDS011;21185;50.978;13.720;2023-09-08T23:11:00;5.03;;;2.70;;
34978;SDS011;21185;50.978;13.720;2023-09-08T23:16:02;4.30;;;2.45;;
34978;SDS011;21185;50.978;13.720;2023-09-08T23:21:05;6.18;;;3.20;;
34978;SDS011;21185;50.978;13.720;2023-09-08T23:26:07;4.13;;;2.50;;
34978;SDS011;21185;50.978;13.720;2023-09-08T23:31:09;7.47;;;3.00;;
34978;SDS011;21185;50.978;13.720;2023-09-08T23:36:11;4.35;;;2.42;;
34978;SDS011;21185;50.978;13.720;2023-09-08T23:41:13;5.05;;;2.85;;
34978;SDS011;21185;50.978;13.720;2023-09-08T23:46:15;3.38;;;2.45;;
34978;SDS011;21185;50.978;13.720;2023-09-08T23:51:17;6.15;;;2.72;;
34978;SDS011;21185;50.978;13.720;2023-09-08T23:56:19;4.25;;;2.65;;
